Time;durP1;ratioP1;P1;durP2;ratioP2;P2;SDS_P1;SDS_P2;PMS_P1;PMS_P2;Temp;Humidity;BMP_temperature;BMP_pressure;BME280_temperature;BME280_humidity;BME280_pressure;Samples;Min_cycle;Max_cycle;Signal;HPM_P1;HPM_P2
2023/01/22 00:01:17;;;;;;;43.40;23.05;;;;;;;-2.24;97.98;103231.59;4869662;29;20050;-77
2023/01/22 00:03:44;;;;;;;41.05;22.27;;;;;;;-2.19;98.35;103226.72;4869316;29;20108;-78
2023/01/22 00:06:14;;;;;;;40.47;21.98;;;;;;;-2.19;98.47;103212.09;4871880;29;20046;-79
2023/01/22 00:08:41;;;;;;;38.97;21.63;;;;;;;-2.22;98.33;103218.75;4868851;29;20047;-80
2023/01/22 00:11:10;;;;;;;39.63;22.55;;;;;;;-2.26;98.36;103215.09;4871324;29;20128;-76
2023/01/22 00:13:37;;;;;;;40.95;22.55;;;;;;;-2.27;98.36;103218.50;4866661;29;20192;-75
2023/01/22 00:16:05;;;;;;;43.03;21.88;;;;;;;-2.29;98.48;103217.50;4869210;29;20052;-76
2023/01/22 00:18:33;;;;;;;43.17;22.98;;;;;;;-2.30;98.56;103218.31;4865414;29;20046;-76
2023/01/22 00:21:01;;;;;;;41.38;22.13;;;;;;;-2.32;98.74;103225.09;4872546;29;20046;-78
2023/01/22 00:23:28;;;;;;;42.58;21.23;;;;;;;-2.37;98.58;103219.63;4872315;29;20141;-78
2023/01/22 00:26:06;;;;;;;42.80;21.73;;;;;;;-2.37;98.53;103221.31;4860926;29;20097;-77
2023/01/22 00:28:33;;;;;;;41.47;22.48;;;;;;;-2.41;98.68;103219.34;4861550;29;20049;-77
2023/01/22 00:31:04;;;;;;;41.95;23.15;;;;;;;-2.45;98.58;103217.38;4865839;29;20045;-77
2023/01/22 00:33:32;;;;;;;43.67;23.45;;;;;;;-2.46;98.56;103219.06;4870959;29;20064;-78
2023/01/22 00:36:07;;;;;;;42.95;22.65;;;;;;;-2.45;98.71;103219.94;4859988;29;20054;-78
2023/01/22 00:38:34;;;;;;;44.08;22.08;;;;;;;-2.45;98.83;103212.19;4860650;29;20056;-77
2023/01/22 00:41:04;;;;;;;43.78;23.05;;;;;;;-2.46;99.30;103218.16;4872103;29;20174;-76
2023/01/22 00:43:34;;;;;;;49.35;24.65;;;;;;;-2.46;99.14;103211.31;4870266;29;20049;-76
2023/01/22 00:46:01;;;;;;;45.72;23.60;;;;;;;-2.47;99.26;103213.78;4865688;29;20113;-76
2023/01/22 00:48:28;;;;;;;45.13;24.17;;;;;;;-2.48;99.27;103209.41;4868755;29;20053;-77
2023/01/22 00:50:56;;;;;;;47.15;24.02;;;;;;;-2.48;99.36;103209.41;4859407;29;20052;-77
2023/01/22 00:53:23;;;;;;;47.55;24.35;;;;;;;-2.48;99.45;103201.66;4872180;29;20038;-76
2023/01/22 00:56:01;;;;;;;46.20;23.58;;;;;;;-2.45;99.30;103207.03;4873167;29;20050;-76
2023/01/22 00:58:29;;;;;;;45.08;23.52;;;;;;;-2.41;99.58;103209.91;4876188;29;20049;-76
2023/01/22 01:00:56;;;;;;;45.35;23.35;;;;;;;-2.34;99.73;103211.16;4857681;29;20107;-75
2023/01/22 01:03:26;;;;;;;45.38;22.83;;;;;;;-2.29;99.62;103201.13;4866529;29;20055;-75
2023/01/22 01:06:03;;;;;;;42.58;22.85;;;;;;;-2.30;99.74;103197.66;4861790;29;20805;-75
2023/01/22 01:08:37;;;;;;;48.08;24.83;;;;;;;-2.36;99.57;103195.59;4861238;29;20058;-75
2023/01/22 01:11:12;;;;;;;44.17;24.20;;;;;;;-2.42;99.41;103197.78;4869604;29;20053;-74
2023/01/22 01:13:41;;;;;;;;;;;;;;;-2.51;99.36;103194.63;4873979;29;20062;-75
2023/01/22 01:16:30;;;;;;;50.97;23.83;;;;;;;-2.57;99.19;103205.47;4862802;29;20490;-76
2023/01/22 01:19:04;;;;;;;41.90;22.45;;;;;;;-2.60;99.42;103200.16;4872090;29;20118;-76
2023/01/22 01:21:32;;;;;;;45.13;22.40;;;;;;;-2.62;99.46;103199.16;4861497;29;20107;-76
2023/01/22 01:23:59;;;;;;;43.70;23.38;;;;;;;-2.64;99.39;103193.00;4857729;29;20054;-76
2023/01/22 01:26:27;;;;;;;45.45;22.70;;;;;;;-2.63;99.40;103204.19;4871772;29;20124;-76
2023/01/22 01:28:55;;;;;;;42.75;22.90;;;;;;;-2.59;99.30;103207.06;4866705;29;20126;-75
2023/01/22 01:31:24;;;;;;;45.72;22.75;;;;;;;-2.53;99.50;103209.13;4859853;29;20538;-75
2023/01/22 01:33:52;;;;;;;46.00;23.17;;;;;;;-2.42;99.84;103208.09;4867844;29;20161;-75
2023/01/22 01:36:23;;;;;;;48.28;23.88;;;;;;;-2.31;99.93;103202.72;4854431;29;20169;-75
2023/01/22 01:39:10;;;;;;;46.95;22.90;;;;;;;-2.22;99.99;103204.16;4863910;29;20133;-75
2023/01/22 01:41:37;;;;;;;43.92;23.13;;;;;;;-2.14;100.00;103198.56;4872364;29;20132;-74
2023/01/22 01:44:21;;;;;;;46.10;23.67;;;;;;;-2.09;100.00;103192.88;4866732;29;20462;-75
2023/01/22 01:46:54;;;;;;;41.20;22.20;;;;;;;-1.97;99.85;103176.31;4860678;29;20046;-74
2023/01/22 01:49:40;;;;;;;43.22;22.85;;;;;;;-1.90;99.51;103179.34;4880392;29;20052;-74
2023/01/22 01:52:11;;;;;;;39.80;22.50;;;;;;;-1.77;98.64;103180.03;4871863;29;20045;-75
2023/01/22 01:54:43;;;;;;;38.28;24.15;;;;;;;-1.66;98.50;103183.25;4862694;29;20073;-74
2023/01/22 01:57:18;;;;;;;42.50;23.20;;;;;;;-1.62;98.09;103186.13;4856160;29;20129;-74
2023/01/22 01:59:47;;;;;;;36.38;21.27;;;;;;;-1.56;97.82;103188.16;4867703;29;20106;-74
2023/01/22 02:02:15;;;;;;;33.42;21.05;;;;;;;-1.45;97.48;103170.66;4859718;29;20098;-74
2023/01/22 02:04:43;;;;;;;35.47;22.08;;;;;;;-1.42;97.17;103173.41;4867866;29;20085;-74
2023/01/22 02:07:10;;;;;;;34.45;22.65;;;;;;;-1.43;96.82;103167.38;4872024;29;20050;-75
2023/01/22 02:09:37;;;;;;;32.05;19.98;;;;;;;-1.43;96.49;103150.94;4869026;29;20056;-75
2023/01/22 02:12:05;;;;;;;35.42;21.52;;;;;;;-1.42;96.23;103152.72;4867426;29;20081;-75
2023/01/22 02:14:38;;;;;;;27.23;17.25;;;;;;;-1.46;96.11;103150.75;4875308;29;20056;-75
2023/01/22 02:17:17;;;;;;;32.22;19.98;;;;;;;-1.47;96.16;103154.13;4866053;29;20054;-75
2023/01/22 02:19:44;;;;;;;33.40;20.67;;;;;;;-1.47;95.97;103155.06;4868528;29;20056;-75
2023/01/22 02:22:18;;;;;;;27.80;17.65;;;;;;;-1.45;95.75;103149.94;4868671;29;20085;-75
2023/01/22 02:24:46;;;;;;;30.20;18.73;;;;;;;-1.47;95.68;103147.28;4869482;29;20053;-76
2023/01/22 02:27:13;;;;;;;30.52;19.35;;;;;;;-1.47;95.66;103142.13;4858550;29;20051;-75
2023/01/22 02:29:41;;;;;;;30.08;18.73;;;;;;;-1.46;95.45;103148.16;4868800;29;20148;-75
2023/01/22 02:32:10;;;;;;;30.10;18.45;;;;;;;-1.44;95.38;103154.31;4866931;29;20095;-77
2023/01/22 02:34:37;;;;;;;27.45;17.13;;;;;;;-1.47;95.42;103152.47;4857372;29;20126;-77
2023/01/22 02:37:05;;;;;;;29.77;19.23;;;;;;;-1.38;95.26;103158.97;4867287;29;20046;-76
2023/01/22 02:39:33;;;;;;;28.65;17.50;;;;;;;-1.39;94.88;103160.66;4867479;29;20057;-77
2023/01/22 02:42:04;;;;;;;30.13;18.58;;;;;;;-1.47;95.00;103159.31;4869755;29;20045;-77
2023/01/22 02:44:32;;;;;;;26.80;17.55;;;;;;;-1.48;95.03;103157.56;4867967;29;20053;-75
2023/01/22 02:47:00;;;;;;;31.25;19.38;;;;;;;-1.52;95.13;103151.28;4886951;29;20068;-75
2023/01/22 02:49:27;;;;;;;28.67;15.77;;;;;;;-1.52;95.21;103156.47;4872527;29;20100;-75
2023/01/22 02:51:54;;;;;;;27.55;17.77;;;;;;;-1.48;95.08;103162.75;4859059;29;20111;-75
2023/01/22 02:54:23;;;;;;;28.55;17.58;;;;;;;-1.48;95.21;103170.50;4884845;29;20070;-75
2023/01/22 02:56:50;;;;;;;31.08;19.70;;;;;;;-1.43;95.25;103175.13;4860750;29;20512;-71
2023/01/22 02:59:17;;;;;;;30.67;18.20;;;;;;;-1.43;95.35;103162.19;4884759;29;20049;-74
2023/01/22 03:01:45;;;;;;;30.27;17.70;;;;;;;-1.41;95.22;103172.63;4864095;29;20137;-74
2023/01/22 03:04:14;;;;;;;31.63;18.10;;;;;;;-1.36;95.36;103165.13;4872711;29;20050;-76
2023/01/22 03:06:45;;;;;;;23.88;15.23;;;;;;;-1.33;95.30;103162.72;4881446;29;20038;-75
2023/01/22 03:09:16;;;;;;;28.67;17.20;;;;;;;-1.32;95.01;103160.19;4869697;29;21259;-75
2023/01/22 03:11:46;;;;;;;30.17;19.35;;;;;;;-1.34;94.96;103151.44;4870069;29;20050;-77
2023/01/22 03:22:39;;;;;;;32.22;19.65;;;;;;;-1.27;95.21;103150.09;4855190;29;20133;-76
2023/01/22 03:25:07;;;;;;;27.50;16.48;;;;;;;-1.16;94.95;103153.25;4865197;29;20725;-76
2023/01/22 03:27:35;;;;;;;33.13;19.45;;;;;;;-1.12;94.77;103142.28;4871606;29;20595;-76
2023/01/22 03:30:03;;;;;;;29.67;19.40;;;;;;;-1.06;94.63;103142.59;4868482;29;20046;-76
2023/01/22 03:32:33;;;;;;;28.52;17.27;;;;;;;-1.02;94.32;103149.75;4870972;29;20049;-75
2023/01/22 03:35:01;;;;;;;30.52;18.10;;;;;;;-0.96;94.13;103133.66;4868384;29;20054;-75
2023/01/22 03:37:40;;;;;;;26.45;16.73;;;;;;;-0.91;93.88;103132.19;4862427;29;20073;-75
2023/01/22 03:40:08;;;;;;;29.00;18.42;;;;;;;-0.90;93.75;103126.22;4871261;29;20053;-75
2023/01/22 03:42:37;;;;;;;24.13;16.17;;;;;;;-0.90;93.69;103117.56;4872173;29;20055;-75
2023/01/22 03:45:06;;;;;;;27.17;16.25;;;;;;;-0.89;93.50;103119.34;4868168;29;20049;-75
2023/01/22 03:47:36;;;;;;;22.52;15.70;;;;;;;-0.86;93.11;103117.81;4864256;29;20041;-75
2023/01/22 03:50:17;;;;;;;22.98;16.15;;;;;;;-0.87;92.85;103105.66;4870953;29;20097;-75
2023/01/22 03:52:45;;;;;;;22.67;15.80;;;;;;;-0.83;92.30;103112.81;4869448;29;20884;-75
2023/01/22 03:55:12;;;;;;;25.17;16.85;;;;;;;-0.82;92.09;103108.50;4862585;29;20038;-76
2023/01/22 03:57:39;;;;;;;24.33;15.73;;;;;;;-0.82;92.05;103104.22;4872283;29;20041;-75
2023/01/22 04:00:07;;;;;;;23.80;14.10;;;;;;;-0.80;91.69;103102.59;4870287;29;20418;-76
2023/01/22 04:02:38;;;;;;;24.63;16.15;;;;;;;-0.77;91.45;103106.16;4868950;29;20251;-74
2023/01/22 04:05:16;;;;;;;23.10;16.05;;;;;;;-0.79;91.34;103109.53;4859559;29;20560;-74
2023/01/22 04:07:43;;;;;;;25.02;16.40;;;;;;;-0.81;91.44;103110.28;4863491;29;20416;-74
2023/01/22 04:10:12;;;;;;;20.83;13.38;;;;;;;-0.78;91.54;103110.44;4871170;29;20086;-74
2023/01/22 04:12:40;;;;;;;24.30;15.95;;;;;;;-0.76;91.17;103106.22;4870473;29;20976;-74
2023/01/22 04:15:10;;;;;;;22.70;16.10;;;;;;;-0.80;91.57;103106.88;4871810;29;20506;-74
2023/01/22 04:17:37;;;;;;;27.02;14.43;;;;;;;-0.76;91.17;103106.22;4867454;29;20106;-75
2023/01/22 04:20:27;;;;;;;24.27;15.65;;;;;;;-0.79;91.06;103106.06;4865478;29;20538;-78
2023/01/22 04:23:08;;;;;;;25.83;16.30;;;;;;;-0.82;91.36;103114.59;4871486;29;20060;-77
2023/01/22 04:25:35;;;;;;;25.10;16.38;;;;;;;-0.81;91.35;103113.75;4868959;29;20517;-75
2023/01/22 04:28:03;;;;;;;24.10;14.65;;;;;;;-0.83;91.50;103107.63;4864782;29;20076;-75
2023/01/22 04:30:34;;;;;;;25.83;16.60;;;;;;;-0.81;91.31;103105.09;4870990;29;20049;-74
2023/01/22 04:33:20;;;;;;;23.30;16.23;;;;;;;-0.78;90.99;103107.88;4870775;29;20102;-74
2023/01/22 04:36:00;;;;;;;24.27;14.77;;;;;;;-0.77;90.84;103114.81;4855252;29;20868;-73
2023/01/22 04:38:27;;;;;;;23.10;15.27;;;;;;;-0.74;90.46;103112.38;4862697;29;20058;-73
2023/01/22 04:40:55;;;;;;;20.98;14.25;;;;;;;-0.71;90.21;103115.13;4862282;29;20049;-74
2023/01/22 04:43:22;;;;;;;21.35;14.88;;;;;;;-0.72;90.15;103112.47;4869287;29;20054;-74
2023/01/22 04:45:50;;;;;;;24.15;13.35;;;;;;;-0.71;90.23;103120.31;4865548;29;20050;-73
2023/01/22 04:48:19;;;;;;;22.50;14.82;;;;;;;-0.72;90.23;103102.13;4860771;29;20126;-74
2023/01/22 04:50:46;;;;;;;23.98;15.68;;;;;;;-0.74;90.27;103106.31;4854933;29;20046;-75
2023/01/22 04:53:13;;;;;;;23.00;15.75;;;;;;;-0.76;90.55;103108.81;4869057;29;20044;-75
2023/01/22 04:55:41;;;;;;;19.45;14.07;;;;;;;-0.73;90.28;103108.09;4867077;29;20050;-76
2023/01/22 04:58:11;;;;;;;22.52;16.58;;;;;;;-0.72;89.99;103104.72;4884688;29;20057;-76
2023/01/22 05:00:39;;;;;;;23.08;15.27;;;;;;;-0.74;90.39;103103.72;4869903;29;20940;-77
2023/01/22 05:03:09;;;;;;;18.77;13.00;;;;;;;-0.68;90.11;103106.63;4868813;29;20149;-76
2023/01/22 05:05:37;;;;;;;21.13;14.07;;;;;;;-0.71;90.08;103103.91;4869167;29;20094;-76
2023/01/22 05:08:04;;;;;;;22.90;15.52;;;;;;;-0.76;90.25;103105.34;4870784;29;20041;-77
2023/01/22 05:10:34;;;;;;;22.60;14.85;;;;;;;-0.77;90.42;103111.31;4868768;29;20128;-74
2023/01/22 05:13:06;;;;;;;17.92;12.60;;;;;;;-0.75;90.13;103108.00;4883695;29;20127;-74
2023/01/22 05:15:34;;;;;;;19.60;12.65;;;;;;;-0.72;90.04;103118.53;4871427;29;20100;-74
2023/01/22 05:18:06;;;;;;;19.25;13.55;;;;;;;-0.65;89.21;103112.84;4870423;29;20157;-74
2023/01/22 05:20:36;;;;;;;21.50;14.52;;;;;;;-0.68;89.28;103119.59;4870253;29;20550;-75
2023/01/22 05:23:04;;;;;;;21.00;14.43;;;;;;;-0.66;89.15;103112.78;4869309;29;20140;-74
2023/01/22 05:25:31;;;;;;;21.85;14.20;;;;;;;-0.67;89.08;103119.69;4867020;29;20132;-74
2023/01/22 05:27:58;;;;;;;19.58;13.68;;;;;;;-0.71;89.35;103119.44;4867819;29;21264;-74
2023/01/22 05:30:34;;;;;;;20.48;13.73;;;;;;;-0.67;88.76;103119.69;4858726;29;20872;-74
2023/01/22 05:33:20;;;;;;;18.95;13.27;;;;;;;-0.73;89.27;103128.81;4871566;29;20045;-74
2023/01/22 05:35:56;;;;;;;18.60;12.68;;;;;;;-0.72;89.25;103130.63;4870545;29;20562;-72
2023/01/22 05:38:24;;;;;;;17.67;12.80;;;;;;;-0.72;89.09;103138.38;4865021;29;20049;-73
2023/01/22 05:40:52;;;;;;;19.10;12.85;;;;;;;-0.73;89.28;103127.13;4865938;29;20049;-74
2023/01/22 05:43:21;;;;;;;18.67;12.40;;;;;;;-0.76;89.32;103121.75;4865472;29;20049;-74
2023/01/22 05:46:00;;;;;;;18.38;12.98;;;;;;;-0.74;89.24;103124.44;4883345;29;20579;-75
2023/01/22 05:48:58;;;;;;;17.05;12.68;;;;;;;-0.72;89.21;103123.72;4867083;29;20045;-74
2023/01/22 05:51:28;;;;;;;16.30;12.15;;;;;;;-0.73;89.20;103121.06;4881573;29;20056;-75
2023/01/22 05:53:58;;;;;;;18.08;11.57;;;;;;;-0.73;89.16;103132.28;4859446;29;20053;-73
2023/01/22 05:56:30;;;;;;;15.65;11.55;;;;;;;-0.75;89.20;103131.31;4851957;29;20042;-73
2023/01/22 05:58:57;;;;;;;16.58;11.77;;;;;;;-0.72;88.99;103131.50;4882184;29;20049;-73
2023/01/22 06:01:25;;;;;;;16.52;11.65;;;;;;;-0.71;89.00;103133.28;4868433;29;20786;-72
2023/01/22 06:03:53;;;;;;;17.52;12.32;;;;;;;-0.77;89.31;103124.28;4863145;29;20414;-73
2023/01/22 06:06:23;;;;;;;17.05;11.80;;;;;;;-0.69;88.81;103122.97;4861197;29;20080;-73
2023/01/22 06:08:51;;;;;;;15.35;11.63;;;;;;;-0.72;88.65;103131.50;4865874;29;20472;-73
2023/01/22 06:11:20;;;;;;;16.95;11.02;;;;;;;-0.73;88.76;103124.53;4867729;29;20156;-73
2023/01/22 06:13:48;;;;;;;17.52;11.63;;;;;;;-0.74;88.83;103133.09;4863474;29;20146;-75
2023/01/22 06:16:17;;;;;;;16.58;12.05;;;;;;;-0.68;88.48;103130.84;4869577;29;20049;-74
2023/01/22 06:19:08;;;;;;;15.82;11.50;;;;;;;-0.72;88.75;103123.72;4870243;29;20544;-75
2023/01/22 06:21:55;;;;;;;18.50;12.23;;;;;;;-0.75;88.84;103126.13;4868638;29;20061;-79
2023/01/22 06:24:34;;;;;;;18.35;12.98;;;;;;;-0.78;88.93;103123.41;4865235;29;20399;-77
2023/01/22 06:27:03;;;;;;;16.38;11.45;;;;;;;-0.80;89.21;103130.19;4863958;29;20049;-77
2023/01/22 06:29:38;;;;;;;17.35;13.57;;;;;;;-0.74;89.21;103127.91;4865363;29;20058;-78
2023/01/22 06:32:07;;;;;;;17.63;12.80;;;;;;;-0.81;89.59;103131.88;4862831;29;20423;-77
2023/01/22 06:34:34;;;;;;;19.55;14.05;;;;;;;-0.77;89.73;103126.88;4859979;29;20509;-78
2023/01/22 06:37:03;;;;;;;19.13;13.75;;;;;;;-0.77;89.78;103129.47;4864832;29;20605;-77
2023/01/22 06:39:32;;;;;;;19.92;13.65;;;;;;;-0.73;89.52;103132.28;4863988;29;20113;-77
2023/01/22 06:42:07;;;;;;;19.85;13.98;;;;;;;-0.72;89.60;103123.72;4865987;29;20137;-77
2023/01/22 06:44:34;;;;;;;17.85;13.60;;;;;;;-0.71;89.60;103133.28;4867837;29;20057;-77
2023/01/22 06:47:01;;;;;;;18.38;14.27;;;;;;;-0.75;89.86;103138.22;4866187;29;20054;-77
2023/01/22 06:49:29;;;;;;;19.73;13.65;;;;;;;-0.73;89.95;103131.41;4860916;29;20898;-77
2023/01/22 06:51:56;;;;;;;21.60;15.05;;;;;;;-0.73;90.03;103129.69;4863293;29;20527;-72
2023/01/22 06:54:24;;;;;;;20.17;15.15;;;;;;;-0.72;89.95;103139.25;4864652;29;20042;-75
2023/01/22 06:56:51;;;;;;;23.77;15.60;;;;;;;-0.72;90.07;103131.50;4863032;29;20193;-74
2023/01/22 06:59:21;;;;;;;20.45;15.30;;;;;;;-0.69;90.19;103141.13;4866008;29;20058;-75
2023/01/22 07:01:48;;;;;;;21.50;15.52;;;;;;;-0.68;90.17;103136.03;4866100;29;20052;-74
2023/01/22 07:04:15;;;;;;;21.00;15.18;;;;;;;-0.69;90.12;103143.72;4865844;29;20049;-71
2023/01/22 07:06:42;;;;;;;22.27;15.90;;;;;;;-0.73;90.58;103145.25;4862098;29;20057;-75
2023/01/22 07:09:09;;;;;;;25.85;16.58;;;;;;;-0.71;90.74;103151.41;4857843;29;20512;-76
2023/01/22 07:11:36;;;;;;;23.60;16.58;;;;;;;-0.68;90.63;103145.50;4858026;29;20586;-77
2023/01/22 07:14:03;;;;;;;23.17;16.10;;;;;;;-0.70;90.67;103160.06;4863227;29;20042;-76
2023/01/22 07:16:30;;;;;;;20.92;14.52;;;;;;;-0.65;90.65;103162.09;4870944;29;20051;-73
2023/01/22 07:18:59;;;;;;;20.02;15.02;;;;;;;-0.63;90.13;103155.28;4862442;29;20050;-73
2023/01/22 07:21:26;;;;;;;24.13;16.90;;;;;;;-0.67;90.49;103158.53;4883589;29;20058;-73
2023/01/22 07:23:53;;;;;;;20.42;15.85;;;;;;;-0.65;90.48;103156.91;4872163;29;20042;-72
2023/01/22 07:26:21;;;;;;;19.75;14.30;;;;;;;-0.62;90.28;103156.19;4869226;29;20128;-71
2023/01/22 07:28:47;;;;;;;20.02;14.48;;;;;;;-0.56;91.49;103161.69;4866482;29;20128;-71
2023/01/22 07:31:14;;;;;;;22.05;14.60;;;;;;;-0.45;91.13;103162.25;4861222;29;20429;-71
2023/01/22 07:33:42;;;;;;;20.02;13.90;;;;;;;-0.46;90.83;103155.31;4858205;29;20053;-71
2023/01/22 07:36:09;;;;;;;18.00;13.48;;;;;;;-0.41;89.99;103168.50;4861941;29;20469;-70
2023/01/22 07:38:36;;;;;;;20.25;13.60;;;;;;;-0.45;89.56;103162.25;4878777;29;20056;-70
2023/01/22 07:41:04;;;;;;;18.17;13.30;;;;;;;-0.47;89.65;103161.31;4858846;29;20042;-70
2023/01/22 07:43:52;;;;;;;16.45;12.40;;;;;;;-0.47;89.53;103159.59;4867381;29;20065;-69
2023/01/22 07:46:20;;;;;;;18.95;13.75;;;;;;;-0.51;89.78;103156.75;4881426;29;20050;-70
2023/01/22 07:48:47;;;;;;;16.65;13.15;;;;;;;-0.52;89.67;103162.75;4873449;29;20038;-70
2023/01/22 07:51:14;;;;;;;16.08;13.20;;;;;;;-0.50;89.82;103154.22;4867518;29;20041;-70
2023/01/22 07:53:42;;;;;;;19.73;13.32;;;;;;;-0.47;89.84;103162.19;4868074;29;20498;-70
2023/01/22 07:56:09;;;;;;;15.90;13.10;;;;;;;-0.27;90.13;103158.84;4867405;29;20102;-70
2023/01/22 07:58:36;;;;;;;16.52;13.27;;;;;;;-0.01;90.24;103160.19;4859818;29;20046;-70
2023/01/22 08:01:07;;;;;;;11.70;10.10;;;;;;;0.20;89.14;103168.16;4863180;29;20569;-70
2023/01/22 08:03:36;;;;;;;16.30;12.32;;;;;;;0.33;88.55;103164.44;4860435;29;20049;-71
2023/01/22 08:06:08;;;;;;;16.15;12.07;;;;;;;0.24;86.94;103166.59;4865557;29;20054;-71
2023/01/22 08:08:37;;;;;;;18.05;13.30;;;;;;;0.08;87.03;103176.22;4865068;29;20588;-72
2023/01/22 08:11:04;;;;;;;16.85;13.43;;;;;;;-0.02;87.27;103173.97;4862577;29;20050;-72
2023/01/22 08:13:31;;;;;;;16.90;12.27;;;;;;;-0.09;87.57;103175.34;4860679;29;20046;-72
2023/01/22 08:15:58;;;;;;;15.60;13.25;;;;;;;-0.11;87.71;103181.28;4863365;29;20523;-72
2023/01/22 08:18:25;;;;;;;18.02;13.25;;;;;;;-0.16;87.62;103187.13;4858739;29;20531;-74
2023/01/22 08:20:52;;;;;;;17.90;13.88;;;;;;;-0.22;88.39;103183.31;4862160;29;20041;-75
2023/01/22 08:23:19;;;;;;;18.83;13.57;;;;;;;-0.22;88.56;103183.31;4869266;29;21692;-74
2023/01/22 08:25:48;;;;;;;15.75;12.88;;;;;;;-0.20;88.48;103177.38;4857759;29;20524;-73
2023/01/22 08:28:15;;;;;;;16.35;13.65;;;;;;;-0.22;88.80;103180.72;4859288;29;20053;-73
2023/01/22 08:30:42;;;;;;;15.98;12.15;;;;;;;-0.19;88.47;103188.66;4866555;29;20064;-75
2023/01/22 08:33:14;;;;;;;15.25;12.15;;;;;;;-0.19;88.54;103175.69;4860830;29;20042;-73
2023/01/22 08:35:42;;;;;;;15.43;12.55;;;;;;;-0.18;88.67;103185.25;4862484;29;20054;-73
2023/01/22 08:38:09;;;;;;;16.08;12.35;;;;;;;-0.16;88.53;103181.91;4863908;29;20049;-73
2023/01/22 08:40:36;;;;;;;15.98;12.55;;;;;;;-0.16;88.71;103186.22;4863316;29;20045;-75
2023/01/22 08:43:04;;;;;;;14.52;12.40;;;;;;;-0.17;88.94;103187.03;4858782;29;20048;-73
2023/01/22 08:45:32;;;;;;;16.98;12.30;;;;;;;-0.10;88.92;103180.47;4862543;29;20136;-73
2023/01/22 08:47:59;;;;;;;14.75;11.70;;;;;;;-0.05;88.44;103182.47;4863292;29;20050;-73
2023/01/22 08:50:28;;;;;;;15.52;12.25;;;;;;;-0.03;87.99;103188.63;4861668;29;20063;-72
2023/01/22 08:52:56;;;;;;;15.40;11.65;;;;;;;-0.05;88.60;103179.88;4862161;29;20045;-72
2023/01/22 08:55:26;;;;;;;15.55;12.10;;;;;;;-0.06;88.42;103177.22;4864063;29;20041;-73
2023/01/22 08:57:57;;;;;;;14.55;11.32;;;;;;;-0.02;88.21;103187.81;4862398;29;20050;-74
2023/01/22 09:00:25;;;;;;;14.05;11.80;;;;;;;-0.01;88.04;103194.78;4859292;29;20087;-71
2023/01/22 09:02:59;;;;;;;14.07;11.82;;;;;;;0.03;88.18;103194.97;4857782;29;20491;-72
2023/01/22 09:05:27;;;;;;;16.02;11.52;;;;;;;0.11;88.07;103198.81;4862880;29;20100;-72
2023/01/22 09:07:54;;;;;;;15.02;11.20;;;;;;;0.28;87.50;103191.91;4869337;29;20050;-71
2023/01/22 09:10:21;;;;;;;12.30;10.00;;;;;;;0.36;87.22;103197.44;4861161;29;20079;-72
2023/01/22 09:12:48;;;;;;;15.13;11.23;;;;;;;0.41;86.45;103193.38;4865048;29;20064;-72
2023/01/22 09:15:16;;;;;;;13.55;9.60;;;;;;;0.40;86.48;103191.59;4863430;29;20049;-73
2023/01/22 09:17:43;;;;;;;12.88;10.00;;;;;;;0.42;86.38;103190.84;4864859;29;20052;-74
2023/01/22 09:20:10;;;;;;;15.75;10.52;;;;;;;0.42;86.83;103185.66;4862919;29;20431;-72
2023/01/22 09:22:37;;;;;;;13.88;10.98;;;;;;;0.46;86.93;103190.22;4866340;29;20053;-72
2023/01/22 09:25:05;;;;;;;13.93;10.27;;;;;;;0.53;86.32;103187.91;4867533;29;20527;-72
2023/01/22 09:27:32;;;;;;;14.25;10.65;;;;;;;0.48;86.31;103189.41;4861247;29;20045;-73
2023/01/22 09:29:59;;;;;;;12.15;10.85;;;;;;;0.49;86.26;103186.88;4859191;29;20041;-72
2023/01/22 09:32:26;;;;;;;12.32;10.30;;;;;;;0.46;86.48;103181.50;4857201;29;20598;-72
2023/01/22 09:34:53;;;;;;;13.18;10.35;;;;;;;0.49;86.34;103184.28;4868138;29;20054;-72
2023/01/22 09:37:21;;;;;;;12.45;10.57;;;;;;;0.46;86.32;103181.50;4858276;29;20046;-72
2023/01/22 09:39:49;;;;;;;13.18;10.75;;;;;;;0.45;86.54;103183.22;4876924;29;20121;-72
2023/01/22 09:42:24;;;;;;;11.23;9.95;;;;;;;0.53;85.78;103188.81;4870934;29;20041;-73
2023/01/22 09:45:05;;;;;;;11.60;10.07;;;;;;;0.49;85.87;103193.78;4871289;29;20101;-72
2023/01/22 09:47:35;;;;;;;11.85;10.32;;;;;;;0.40;86.39;103196.78;4862797;29;20578;-71
2023/01/22 09:50:10;;;;;;;12.35;10.10;;;;;;;0.43;86.37;103200.44;4871572;29;20042;-72
2023/01/22 09:52:39;;;;;;;12.18;10.32;;;;;;;0.38;86.49;103195.81;4860041;29;20050;-72
2023/01/22 09:55:14;;;;;;;14.27;10.90;;;;;;;0.34;86.84;103194.78;4871661;29;20053;-71
2023/01/22 09:57:46;;;;;;;11.98;10.50;;;;;;;0.39;86.83;103197.59;4863305;29;20217;-71
2023/01/22 10:00:18;;;;;;;11.48;10.20;;;;;;;0.38;86.77;103196.72;4870949;29;20046;-71
2023/01/22 10:02:53;;;;;;;13.98;10.27;;;;;;;0.40;86.61;103195.09;4862504;29;20046;-72
2023/01/22 10:05:51;;;;;;;12.57;10.38;;;;;;;0.42;86.91;103197.78;4866154;29;20041;-71
2023/01/22 10:08:31;;;;;;;11.43;10.23;;;;;;;0.45;86.56;103204.00;4864883;29;20345;-70
2023/01/22 10:10:59;;;;;;;11.40;10.20;;;;;;;0.43;86.59;103203.03;4876038;29;20056;-70
2023/01/22 10:13:34;;;;;;;11.40;10.02;;;;;;;0.43;86.99;103199.56;4886177;29;20519;-71
2023/01/22 10:16:02;;;;;;;;;;;;;;;0.46;86.59;103204.88;4865606;29;20045;-71
2023/01/22 10:18:45;;;;;;;13.93;9.98;;;;;;;0.44;86.64;103204.81;4869455;29;19928;-71
2023/01/22 10:21:18;;;;;;;11.73;10.20;;;;;;;0.43;86.81;103212.53;4883009;29;20061;-71
2023/01/22 10:23:47;;;;;;;11.48;9.20;;;;;;;0.48;86.46;103207.56;4868888;29;20053;-71
2023/01/22 10:26:28;;;;;;;13.90;10.57;;;;;;;0.48;86.51;103216.22;4858203;29;20525;-72
2023/01/22 10:29:03;;;;;;;13.27;11.23;;;;;;;0.48;86.79;103213.63;4860584;29;20050;-71
2023/01/22 10:31:35;;;;;;;11.73;10.40;;;;;;;0.53;86.76;103211.25;4867858;29;20054;-70
2023/01/22 10:34:20;;;;;;;12.68;10.55;;;;;;;0.59;86.49;103207.28;4858985;29;20141;-71
2023/01/22 10:36:53;;;;;;;12.55;11.02;;;;;;;0.66;86.22;103200.66;4866125;29;20041;-71
2023/01/22 10:39:20;;;;;;;13.13;10.90;;;;;;;0.64;86.26;103199.69;4853452;29;20194;-71
2023/01/22 10:41:49;;;;;;;12.30;10.65;;;;;;;0.67;86.43;103192.06;4883339;29;20137;-71
2023/01/22 10:44:17;;;;;;;10.75;9.65;;;;;;;0.76;85.98;103197.72;4873103;29;20549;-71
2023/01/22 10:46:48;;;;;;;11.60;10.40;;;;;;;0.74;86.20;103196.72;4865373;29;20090;-70
2023/01/22 10:49:26;;;;;;;13.32;10.50;;;;;;;0.77;86.26;103183.00;4870493;29;20084;-70
2023/01/22 10:51:57;;;;;;;11.68;9.68;;;;;;;0.85;85.62;103188.56;4869483;29;20048;-70
2023/01/22 10:54:31;;;;;;;11.27;10.10;;;;;;;0.87;85.21;103195.59;4864256;29;20743;-72
2023/01/22 10:57:24;;;;;;;12.13;9.60;;;;;;;0.86;85.43;103193.84;4868047;29;20952;-72
2023/01/22 11:00:14;;;;;;;12.20;8.75;;;;;;;0.96;85.10;103195.16;4865372;29;20042;-71
2023/01/22 11:02:47;;;;;;;11.10;9.63;;;;;;;0.93;85.45;103190.72;4858500;29;20065;-71
2023/01/22 11:05:23;;;;;;;11.13;9.93;;;;;;;0.94;85.24;103183.81;4860811;29;20046;-71
2023/01/22 11:08:15;;;;;;;11.85;10.07;;;;;;;0.93;85.55;103182.94;4869232;29;20049;-72
2023/01/22 11:10:57;;;;;;;11.20;9.32;;;;;;;1.01;84.95;103177.19;4871007;29;20045;-71
2023/01/22 11:13:53;;;;;;;11.98;9.43;;;;;;;1.02;85.33;103182.47;4865209;29;20463;-72
2023/01/22 11:16:23;;;;;;;10.75;9.18;;;;;;;1.07;85.15;103182.66;4863201;29;20049;-74
2023/01/22 11:18:58;;;;;;;12.98;10.18;;;;;;;1.14;84.25;103174.38;4870274;29;20060;-72
2023/01/22 11:21:31;;;;;;;;;;;;;;;1.11;84.80;103176.81;4868364;29;20491;-71
2023/01/22 11:24:10;;;;;;;13.07;9.52;;;;;;;1.16;84.23;103174.41;4868534;29;19945;-71
2023/01/22 11:27:18;;;;;;;11.13;9.60;;;;;;;1.06;84.90;103175.72;4868798;29;20298;-72
2023/01/22 11:30:49;;;;;;;12.68;8.48;;;;;;;1.09;84.83;103183.63;4866790;29;20053;-72
2023/01/22 11:34:00;;;;;;;11.00;8.77;;;;;;;1.07;84.48;103180.06;4861256;29;20583;-71
2023/01/22 11:36:44;;;;;;;11.88;9.73;;;;;;;0.98;84.55;103183.16;4841310;29;20208;-72
2023/01/22 11:39:59;;;;;;;12.65;9.73;;;;;;;0.92;84.93;103170.75;4861714;29;20084;-71